sensor_id;sensor_type;location;lat;lon;timestamp;P1;durP1;ratioP1;P2;durP2;ratioP2
13439;SDS011;6792;57.698;11.946;2023-02-15T00:00:29;20.67;;;10.03;;
13439;SDS011;6792;57.698;11.946;2023-02-15T00:02:58;21.20;;;10.30;;
13439;SDS011;6792;57.698;11.946;2023-02-15T00:05:27;17.33;;;8.93;;
13439;SDS011;6792;57.698;11.946;2023-02-15T00:07:58;20.40;;;9.93;;
13439;SDS011;6792;57.698;11.946;2023-02-15T00:10:27;21.97;;;10.07;;
13439;SDS011;6792;57.698;11.946;2023-02-15T00:12:56;20.87;;;9.70;;
13439;SDS011;6792;57.698;11.946;2023-02-15T00:15:27;22.30;;;9.83;;
13439;SDS011;6792;57.698;11.946;2023-02-15T00:17:57;21.30;;;9.40;;
13439;SDS011;6792;57.698;11.946;2023-02-15T00:20:26;19.30;;;8.77;;
13439;SDS011;6792;57.698;11.946;2023-02-15T00:22:55;24.20;;;10.00;;
13439;SDS011;6792;57.698;11.946;2023-02-15T00:25:24;22.97;;;10.10;;
13439;SDS011;6792;57.698;11.946;2023-02-15T00:27:53;20.50;;;9.77;;
13439;SDS011;6792;57.698;11.946;2023-02-15T00:30:22;18.67;;;9.60;;
13439;SDS011;6792;57.698;11.946;2023-02-15T00:32:51;23.67;;;9.87;;
13439;SDS011;6792;57.698;11.946;2023-02-15T00:35:20;22.53;;;9.90;;
13439;SDS011;6792;57.698;11.946;2023-02-15T00:37:49;23.63;;;10.43;;
13439;SDS011;6792;57.698;11.946;2023-02-15T00:40:19;25.43;;;9.87;;
13439;SDS011;6792;57.698;11.946;2023-02-15T00:42:48;22.77;;;10.23;;
13439;SDS011;6792;57.698;11.946;2023-02-15T00:45:17;19.77;;;9.83;;
13439;SDS011;6792;57.698;11.946;2023-02-15T00:47:47;25.00;;;10.07;;
13439;SDS011;6792;57.698;11.946;2023-02-15T00:50:16;23.40;;;9.93;;
13439;SDS011;6792;57.698;11.946;2023-02-15T00:52:45;23.07;;;10.07;;
13439;SDS011;6792;57.698;11.946;2023-02-15T00:55:14;22.90;;;10.03;;
13439;SDS011;6792;57.698;11.946;2023-02-15T00:57:44;20.83;;;9.90;;
13439;SDS011;6792;57.698;11.946;2023-02-15T01:00:13;21.40;;;9.87;;
13439;SDS011;6792;57.698;11.946;2023-02-15T01:02:43;27.03;;;10.87;;
13439;SDS011;6792;57.698;11.946;2023-02-15T01:05:14;23.60;;;10.67;;
13439;SDS011;6792;57.698;11.946;2023-02-15T01:07:43;22.27;;;9.97;;
13439;SDS011;6792;57.698;11.946;2023-02-15T01:10:12;20.73;;;10.00;;
13439;SDS011;6792;57.698;11.946;2023-02-15T01:12:41;22.27;;;10.40;;
13439;SDS011;6792;57.698;11.946;2023-02-15T01:15:10;22.37;;;10.63;;
13439;SDS011;6792;57.698;11.946;2023-02-15T01:17:39;22.20;;;10.17;;
13439;SDS011;6792;57.698;11.946;2023-02-15T01:20:09;22.37;;;10.57;;
13439;SDS011;6792;57.698;11.946;2023-02-15T01:22:39;23.37;;;10.80;;
13439;SDS011;6792;57.698;11.946;2023-02-15T01:25:10;26.00;;;10.13;;
13439;SDS011;6792;57.698;11.946;2023-02-15T01:27:38;24.30;;;11.00;;
13439;SDS011;6792;57.698;11.946;2023-02-15T01:30:08;26.27;;;10.57;;
13439;SDS011;6792;57.698;11.946;2023-02-15T01:32:39;22.80;;;10.40;;
13439;SDS011;6792;57.698;11.946;2023-02-15T01:35:10;23.77;;;10.87;;
13439;SDS011;6792;57.698;11.946;2023-02-15T01:37:39;23.87;;;10.40;;
13439;SDS011;6792;57.698;11.946;2023-02-15T01:40:11;23.43;;;10.73;;
13439;SDS011;6792;57.698;11.946;2023-02-15T01:42:42;26.33;;;10.87;;
13439;SDS011;6792;57.698;11.946;2023-02-15T01:45:16;27.10;;;11.50;;
13439;SDS011;6792;57.698;11.946;2023-02-15T01:47:51;23.73;;;10.97;;
13439;SDS011;6792;57.698;11.946;2023-02-15T01:50:24;24.00;;;9.90;;
13439;SDS011;6792;57.698;11.946;2023-02-15T01:52:58;21.73;;;10.00;;
13439;SDS011;6792;57.698;11.946;2023-02-15T01:55:32;23.20;;;11.27;;
13439;SDS011;6792;57.698;11.946;2023-02-15T01:58:03;23.53;;;10.30;;
13439;SDS011;6792;57.698;11.946;2023-02-15T02:00:33;23.67;;;10.60;;
13439;SDS011;6792;57.698;11.946;2023-02-15T02:03:02;22.80;;;10.77;;
13439;SDS011;6792;57.698;11.946;2023-02-15T02:05:32;25.03;;;11.60;;
13439;SDS011;6792;57.698;11.946;2023-02-15T02:08:04;21.97;;;9.93;;
13439;SDS011;6792;57.698;11.946;2023-02-15T02:10:36;23.77;;;10.23;;
13439;SDS011;6792;57.698;11.946;2023-02-15T02:13:05;24.70;;;11.50;;
13439;SDS011;6792;57.698;11.946;2023-02-15T02:15:38;23.30;;;10.87;;
13439;SDS011;6792;57.698;11.946;2023-02-15T02:18:13;21.50;;;10.27;;
13439;SDS011;6792;57.698;11.946;2023-02-15T02:20:52;26.37;;;11.47;;
13439;SDS011;6792;57.698;11.946;2023-02-15T02:23:43;20.53;;;9.93;;
13439;SDS011;6792;57.698;11.946;2023-02-15T02:26:39;22.70;;;11.03;;
13439;SDS011;6792;57.698;11.946;2023-02-15T02:32:53;25.63;;;11.30;;
13439;SDS011;6792;57.698;11.946;2023-02-15T02:35:37;22.23;;;10.53;;
13439;SDS011;6792;57.698;11.946;2023-02-15T02:38:11;26.37;;;11.17;;
13439;SDS011;6792;57.698;11.946;2023-02-15T02:40:45;30.17;;;12.20;;
13439;SDS011;6792;57.698;11.946;2023-02-15T02:43:18;20.70;;;9.40;;
13439;SDS011;6792;57.698;11.946;2023-02-15T02:45:52;23.60;;;10.43;;
13439;SDS011;6792;57.698;11.946;2023-02-15T02:48:24;25.23;;;11.07;;
13439;SDS011;6792;57.698;11.946;2023-02-15T02:50:55;23.97;;;10.77;;
13439;SDS011;6792;57.698;11.946;2023-02-15T02:53:24;24.80;;;10.77;;
13439;SDS011;6792;57.698;11.946;2023-02-15T02:55:55;24.97;;;10.93;;
13439;SDS011;6792;57.698;11.946;2023-02-15T02:58:26;24.10;;;11.03;;
13439;SDS011;6792;57.698;11.946;2023-02-15T03:00:59;23.13;;;11.20;;
13439;SDS011;6792;57.698;11.946;2023-02-15T03:03:34;25.63;;;11.53;;
13439;SDS011;6792;57.698;11.946;2023-02-15T03:06:05;23.27;;;11.23;;
13439;SDS011;6792;57.698;11.946;2023-02-15T03:08:38;21.07;;;10.50;;
13439;SDS011;6792;57.698;11.946;2023-02-15T03:11:09;25.57;;;11.80;;
13439;SDS011;6792;57.698;11.946;2023-02-15T03:13:40;29.03;;;12.17;;
13439;SDS011;6792;57.698;11.946;2023-02-15T03:16:10;25.07;;;11.00;;
13439;SDS011;6792;57.698;11.946;2023-02-15T03:18:54;24.33;;;11.80;;
13439;SDS011;6792;57.698;11.946;2023-02-15T03:21:30;24.97;;;12.23;;
13439;SDS011;6792;57.698;11.946;2023-02-15T03:24:02;26.80;;;12.83;;
13439;SDS011;6792;57.698;11.946;2023-02-15T03:26:34;24.40;;;11.93;;
13439;SDS011;6792;57.698;11.946;2023-02-15T03:29:06;26.43;;;12.70;;
13439;SDS011;6792;57.698;11.946;2023-02-15T03:31:40;25.93;;;12.13;;
13439;SDS011;6792;57.698;11.946;2023-02-15T03:34:12;28.83;;;13.10;;
13439;SDS011;6792;57.698;11.946;2023-02-15T03:36:46;28.40;;;11.33;;
13439;SDS011;6792;57.698;11.946;2023-02-15T03:39:20;22.87;;;11.30;;
13439;SDS011;6792;57.698;11.946;2023-02-15T03:41:55;25.77;;;11.83;;
13439;SDS011;6792;57.698;11.946;2023-02-15T03:44:27;28.20;;;13.33;;
13439;SDS011;6792;57.698;11.946;2023-02-15T03:47:04;27.63;;;13.17;;
13439;SDS011;6792;57.698;11.946;2023-02-15T03:49:38;26.00;;;12.00;;
13439;SDS011;6792;57.698;11.946;2023-02-15T03:52:09;27.90;;;13.00;;
13439;SDS011;6792;57.698;11.946;2023-02-15T03:54:40;25.63;;;12.43;;
13439;SDS011;6792;57.698;11.946;2023-02-15T03:57:11;26.13;;;12.60;;
13439;SDS011;6792;57.698;11.946;2023-02-15T04:00:04;29.93;;;13.50;;
13439;SDS011;6792;57.698;11.946;2023-02-15T04:05:52;26.13;;;12.70;;
13439;SDS011;6792;57.698;11.946;2023-02-15T04:08:21;28.80;;;13.40;;
13439;SDS011;6792;57.698;11.946;2023-02-15T04:10:52;25.03;;;13.00;;
13439;SDS011;6792;57.698;11.946;2023-02-15T04:13:23;28.67;;;13.13;;
13439;SDS011;6792;57.698;11.946;2023-02-15T04:15:54;26.00;;;12.57;;
13439;SDS011;6792;57.698;11.946;2023-02-15T04:18:30;32.40;;;14.17;;
13439;SDS011;6792;57.698;11.946;2023-02-15T04:21:17;33.43;;;14.17;;
13439;SDS011;6792;57.698;11.946;2023-02-15T04:24:05;28.83;;;13.30;;
13439;SDS011;6792;57.698;11.946;2023-02-15T04:26:53;28.63;;;13.00;;
13439;SDS011;6792;57.698;11.946;2023-02-15T04:29:23;32.93;;;13.60;;
13439;SDS011;6792;57.698;11.946;2023-02-15T04:31:53;31.97;;;13.87;;
13439;SDS011;6792;57.698;11.946;2023-02-15T04:34:24;30.27;;;14.13;;
13439;SDS011;6792;57.698;11.946;2023-02-15T04:36:53;31.87;;;12.97;;
13439;SDS011;6792;57.698;11.946;2023-02-15T04:39:22;33.90;;;14.10;;
13439;SDS011;6792;57.698;11.946;2023-02-15T04:41:51;33.40;;;13.87;;
13439;SDS011;6792;57.698;11.946;2023-02-15T04:44:20;30.03;;;14.10;;
13439;SDS011;6792;57.698;11.946;2023-02-15T04:46:49;28.13;;;13.87;;
13439;SDS011;6792;57.698;11.946;2023-02-15T04:49:18;30.93;;;13.57;;
13439;SDS011;6792;57.698;11.946;2023-02-15T04:51:47;25.27;;;12.00;;
13439;SDS011;6792;57.698;11.946;2023-02-15T04:54:16;32.67;;;13.90;;
13439;SDS011;6792;57.698;11.946;2023-02-15T04:56:45;33.27;;;13.27;;
13439;SDS011;6792;57.698;11.946;2023-02-15T04:59:15;33.40;;;14.17;;
13439;SDS011;6792;57.698;11.946;2023-02-15T05:01:44;31.37;;;13.67;;
13439;SDS011;6792;57.698;11.946;2023-02-15T05:04:13;33.17;;;14.03;;
13439;SDS011;6792;57.698;11.946;2023-02-15T05:06:42;34.63;;;13.40;;
13439;SDS011;6792;57.698;11.946;2023-02-15T05:09:11;29.17;;;13.37;;
13439;SDS011;6792;57.698;11.946;2023-02-15T05:11:40;32.73;;;13.67;;
13439;SDS011;6792;57.698;11.946;2023-02-15T05:14:09;34.20;;;14.67;;
13439;SDS011;6792;57.698;11.946;2023-02-15T05:16:38;35.30;;;14.47;;
13439;SDS011;6792;57.698;11.946;2023-02-15T05:19:07;27.70;;;12.47;;
13439;SDS011;6792;57.698;11.946;2023-02-15T05:21:37;30.23;;;13.57;;
13439;SDS011;6792;57.698;11.946;2023-02-15T05:24:06;26.10;;;13.47;;
13439;SDS011;6792;57.698;11.946;2023-02-15T05:26:54;29.27;;;12.33;;
13439;SDS011;6792;57.698;11.946;2023-02-15T05:29:40;34.70;;;14.53;;
13439;SDS011;6792;57.698;11.946;2023-02-15T05:32:10;36.20;;;14.50;;
13439;SDS011;6792;57.698;11.946;2023-02-15T05:34:41;29.30;;;12.77;;
13439;SDS011;6792;57.698;11.946;2023-02-15T05:37:10;33.43;;;14.03;;
13439;SDS011;6792;57.698;11.946;2023-02-15T05:39:39;28.23;;;13.23;;
13439;SDS011;6792;57.698;11.946;2023-02-15T05:42:10;26.70;;;12.60;;
13439;SDS011;6792;57.698;11.946;2023-02-15T05:44:39;30.83;;;13.53;;
13439;SDS011;6792;57.698;11.946;2023-02-15T05:47:08;31.37;;;13.50;;
13439;SDS011;6792;57.698;11.946;2023-02-15T05:49:37;34.43;;;13.50;;
13439;SDS011;6792;57.698;11.946;2023-02-15T05:52:06;30.67;;;13.57;;
13439;SDS011;6792;57.698;11.946;2023-02-15T05:57:14;31.97;;;14.20;;
13439;SDS011;6792;57.698;11.946;2023-02-15T05:59:43;35.03;;;14.23;;
13439;SDS011;6792;57.698;11.946;2023-02-15T06:02:12;32.37;;;13.50;;
13439;SDS011;6792;57.698;11.946;2023-02-15T06:04:41;27.97;;;13.17;;
13439;SDS011;6792;57.698;11.946;2023-02-15T06:07:10;31.07;;;13.67;;
13439;SDS011;6792;57.698;11.946;2023-02-15T06:09:40;28.10;;;13.03;;
13439;SDS011;6792;57.698;11.946;2023-02-15T06:12:09;29.00;;;13.07;;
13439;SDS011;6792;57.698;11.946;2023-02-15T06:14:38;29.10;;;13.30;;
13439;SDS011;6792;57.698;11.946;2023-02-15T06:17:09;30.37;;;12.73;;
13439;SDS011;6792;57.698;11.946;2023-02-15T06:19:38;29.93;;;13.20;;
13439;SDS011;6792;57.698;11.946;2023-02-15T06:22:07;27.47;;;13.10;;
13439;SDS011;6792;57.698;11.946;2023-02-15T06:24:37;30.73;;;13.63;;
13439;SDS011;6792;57.698;11.946;2023-02-15T06:27:06;28.13;;;12.37;;
13439;SDS011;6792;57.698;11.946;2023-02-15T06:29:35;26.40;;;11.67;;
13439;SDS011;6792;57.698;11.946;2023-02-15T06:32:04;27.40;;;12.00;;
13439;SDS011;6792;57.698;11.946;2023-02-15T06:34:33;24.40;;;11.30;;
13439;SDS011;6792;57.698;11.946;2023-02-15T06:37:02;26.20;;;11.83;;
13439;SDS011;6792;57.698;11.946;2023-02-15T06:39:32;27.20;;;11.63;;
13439;SDS011;6792;57.698;11.946;2023-02-15T06:42:01;30.80;;;13.13;;
13439;SDS011;6792;57.698;11.946;2023-02-15T06:44:30;26.27;;;12.03;;
13439;SDS011;6792;57.698;11.946;2023-02-15T06:46:59;28.63;;;12.77;;
13439;SDS011;6792;57.698;11.946;2023-02-15T06:49:28;25.17;;;11.60;;
13439;SDS011;6792;57.698;11.946;2023-02-15T06:51:57;27.43;;;12.23;;
13439;SDS011;6792;57.698;11.946;2023-02-15T06:54:26;37.47;;;12.73;;
13439;SDS011;6792;57.698;11.946;2023-02-15T06:56:55;29.63;;;12.63;;
13439;SDS011;6792;57.698;11.946;2023-02-15T06:59:24;28.50;;;12.43;;
13439;SDS011;6792;57.698;11.946;2023-02-15T07:01:53;26.90;;;12.17;;
13439;SDS011;6792;57.698;11.946;2023-02-15T07:04:22;26.47;;;12.67;;
13439;SDS011;6792;57.698;11.946;2023-02-15T07:06:51;27.33;;;12.70;;
13439;SDS011;6792;57.698;11.946;2023-02-15T07:09:21;24.90;;;11.73;;
13439;SDS011;6792;57.698;11.946;2023-02-15T07:11:50;26.93;;;12.63;;
13439;SDS011;6792;57.698;11.946;2023-02-15T07:14:36;26.93;;;12.23;;
13439;SDS011;6792;57.698;11.946;2023-02-15T07:17:06;27.70;;;12.70;;
13439;SDS011;6792;57.698;11.946;2023-02-15T07:19:38;27.97;;;12.23;;
13439;SDS011;6792;57.698;11.946;2023-02-15T07:22:07;30.17;;;12.87;;
13439;SDS011;6792;57.698;11.946;2023-02-15T07:24:36;26.30;;;11.73;;
13439;SDS011;6792;57.698;11.946;2023-02-15T07:27:06;23.57;;;10.97;;
13439;SDS011;6792;57.698;11.946;2023-02-15T07:29:34;29.00;;;12.80;;
13439;SDS011;6792;57.698;11.946;2023-02-15T07:32:03;28.33;;;12.00;;
13439;SDS011;6792;57.698;11.946;2023-02-15T07:34:34;22.87;;;11.37;;
13439;SDS011;6792;57.698;11.946;2023-02-15T07:37:04;23.93;;;11.33;;
13439;SDS011;6792;57.698;11.946;2023-02-15T07:39:33;29.30;;;12.23;;
13439;SDS011;6792;57.698;11.946;2023-02-15T07:42:02;25.50;;;11.90;;
13439;SDS011;6792;57.698;11.946;2023-02-15T07:44:31;27.20;;;11.80;;
13439;SDS011;6792;57.698;11.946;2023-02-15T07:47:00;24.60;;;11.20;;
13439;SDS011;6792;57.698;11.946;2023-02-15T07:49:29;27.57;;;11.83;;
13439;SDS011;6792;57.698;11.946;2023-02-15T07:51:58;27.43;;;13.00;;
13439;SDS011;6792;57.698;11.946;2023-02-15T07:54:29;24.50;;;12.07;;
13439;SDS011;6792;57.698;11.946;2023-02-15T07:56:58;27.30;;;12.30;;
13439;SDS011;6792;57.698;11.946;2023-02-15T07:59:28;28.23;;;12.13;;
13439;SDS011;6792;57.698;11.946;2023-02-15T08:01:58;27.53;;;12.77;;
13439;SDS011;6792;57.698;11.946;2023-02-15T08:04:27;29.70;;;13.20;;
13439;SDS011;6792;57.698;11.946;2023-02-15T08:06:56;26.23;;;12.23;;
13439;SDS011;6792;57.698;11.946;2023-02-15T08:09:25;27.40;;;12.97;;
13439;SDS011;6792;57.698;11.946;2023-02-15T08:11:54;29.30;;;12.27;;
13439;SDS011;6792;57.698;11.946;2023-02-15T08:14:23;30.70;;;13.10;;
13439;SDS011;6792;57.698;11.946;2023-02-15T08:16:52;31.00;;;13.23;;
13439;SDS011;6792;57.698;11.946;2023-02-15T08:19:23;32.00;;;13.70;;
13439;SDS011;6792;57.698;11.946;2023-02-15T08:21:54;28.47;;;13.07;;
13439;SDS011;6792;57.698;11.946;2023-02-15T08:24:25;32.23;;;13.87;;
13439;SDS011;6792;57.698;11.946;2023-02-15T08:26:56;31.33;;;13.50;;
13439;SDS011;6792;57.698;11.946;2023-02-15T08:29:26;28.10;;;12.90;;
13439;SDS011;6792;57.698;11.946;2023-02-15T08:31:56;31.57;;;14.47;;
13439;SDS011;6792;57.698;11.946;2023-02-15T08:34:28;28.23;;;12.87;;
13439;SDS011;6792;57.698;11.946;2023-02-15T08:36:58;34.30;;;13.17;;
13439;SDS011;6792;57.698;11.946;2023-02-15T08:39:28;30.97;;;13.40;;
13439;SDS011;6792;57.698;11.946;2023-02-15T08:41:57;30.47;;;14.10;;
13439;SDS011;6792;57.698;11.946;2023-02-15T08:44:26;32.57;;;12.83;;
13439;SDS011;6792;57.698;11.946;2023-02-15T08:46:56;31.17;;;13.77;;
13439;SDS011;6792;57.698;11.946;2023-02-15T08:49:27;33.60;;;13.67;;
13439;SDS011;6792;57.698;11.946;2023-02-15T08:51:56;28.07;;;12.50;;
13439;SDS011;6792;57.698;11.946;2023-02-15T08:54:26;32.93;;;12.83;;
13439;SDS011;6792;57.698;11.946;2023-02-15T08:56:55;28.37;;;12.73;;
13439;SDS011;6792;57.698;11.946;2023-02-15T08:59:25;29.50;;;13.10;;
13439;SDS011;6792;57.698;11.946;2023-02-15T09:01:54;34.27;;;13.30;;
13439;SDS011;6792;57.698;11.946;2023-02-15T09:04:23;30.53;;;13.40;;
13439;SDS011;6792;57.698;11.946;2023-02-15T09:06:52;27.77;;;13.13;;
13439;SDS011;6792;57.698;11.946;2023-02-15T09:09:22;30.30;;;13.83;;
13439;SDS011;6792;57.698;11.946;2023-02-15T09:11:51;30.10;;;13.80;;
13439;SDS011;6792;57.698;11.946;2023-02-15T09:14:20;28.63;;;13.07;;
13439;SDS011;6792;57.698;11.946;2023-02-15T09:16:51;29.23;;;12.97;;
13439;SDS011;6792;57.698;11.946;2023-02-15T09:19:21;32.63;;;13.90;;
13439;SDS011;6792;57.698;11.946;2023-02-15T09:21:52;30.10;;;12.53;;
13439;SDS011;6792;57.698;11.946;2023-02-15T09:24:21;26.00;;;11.93;;
13439;SDS011;6792;57.698;11.946;2023-02-15T09:26:50;30.10;;;12.30;;
13439;SDS011;6792;57.698;11.946;2023-02-15T09:29:19;33.03;;;12.63;;
13439;SDS011;6792;57.698;11.946;2023-02-15T09:31:49;27.10;;;12.80;;
13439;SDS011;6792;57.698;11.946;2023-02-15T09:34:20;32.97;;;13.47;;
13439;SDS011;6792;57.698;11.946;2023-02-15T09:36:51;31.13;;;12.20;;
13439;SDS011;6792;57.698;11.946;2023-02-15T09:39:20;24.23;;;12.07;;
13439;SDS011;6792;57.698;11.946;2023-02-15T09:41:58;28.27;;;13.00;;
13439;SDS011;6792;57.698;11.946;2023-02-15T09:48:03;26.30;;;12.30;;
13439;SDS011;6792;57.698;11.946;2023-02-15T09:50:48;30.37;;;13.60;;
13439;SDS011;6792;57.698;11.946;2023-02-15T09:53:33;31.47;;;14.10;;
13439;SDS011;6792;57.698;11.946;2023-02-15T09:56:12;30.90;;;12.73;;
13439;SDS011;6792;57.698;11.946;2023-02-15T09:58:45;28.30;;;13.33;;
13439;SDS011;6792;57.698;11.946;2023-02-15T10:01:18;29.17;;;13.37;;
13439;SDS011;6792;57.698;11.946;2023-02-15T10:03:54;32.07;;;14.57;;
13439;SDS011;6792;57.698;11.946;2023-02-15T10:06:34;34.50;;;14.17;;
13439;SDS011;6792;57.698;11.946;2023-02-15T10:09:09;29.73;;;12.93;;
13439;SDS011;6792;57.698;11.946;2023-02-15T10:11:47;31.10;;;14.10;;
13439;SDS011;6792;57.698;11.946;2023-02-15T10:14:40;31.57;;;14.27;;
13439;SDS011;6792;57.698;11.946;2023-02-15T10:17:19;31.23;;;13.20;;
13439;SDS011;6792;57.698;11.946;2023-02-15T10:19:57;31.23;;;13.23;;
13439;SDS011;6792;57.698;11.946;2023-02-15T10:22:34;29.27;;;13.30;;
13439;SDS011;6792;57.698;11.946;2023-02-15T10:25:25;29.27;;;13.80;;
13439;SDS011;6792;57.698;11.946;2023-02-15T10:27:58;26.17;;;12.83;;
13439;SDS011;6792;57.698;11.946;2023-02-15T10:30:33;33.63;;;14.53;;
13439;SDS011;6792;57.698;11.946;2023-02-15T10:33:07;33.97;;;13.87;;
13439;SDS011;6792;57.698;11.946;2023-02-15T10:35:40;31.23;;;14.37;;
13439;SDS011;6792;57.698;11.946;2023-02-15T10:38:12;29.47;;;14.97;;
13439;SDS011;6792;57.698;11.946;2023-02-15T10:40:51;27.37;;;13.27;;
13439;SDS011;6792;57.698;11.946;2023-02-15T10:46:33;30.80;;;14.10;;
13439;SDS011;6792;57.698;11.946;2023-02-15T10:49:12;30.77;;;14.47;;
13439;SDS011;6792;57.698;11.946;2023-02-15T10:51:52;31.10;;;15.00;;
13439;SDS011;6792;57.698;11.946;2023-02-15T10:54:27;31.07;;;14.27;;
13439;SDS011;6792;57.698;11.946;2023-02-15T10:57:02;34.30;;;14.87;;
13439;SDS011;6792;57.698;11.946;2023-02-15T10:59:36;29.43;;;13.57;;
13439;SDS011;6792;57.698;11.946;2023-02-15T11:02:10;28.73;;;12.60;;
13439;SDS011;6792;57.698;11.946;2023-02-15T11:04:52;31.77;;;13.53;;
13439;SDS011;6792;57.698;11.946;2023-02-15T11:07:26;28.77;;;12.50;;
13439;SDS011;6792;57.698;11.946;2023-02-15T11:10:00;29.40;;;12.70;;
13439;SDS011;6792;57.698;11.946;2023-02-15T11:12:36;30.13;;;12.73;;
13439;SDS011;6792;57.698;11.946;2023-02-15T11:15:11;27.43;;;11.67;;
13439;SDS011;6792;57.698;11.946;2023-02-15T11:17:43;25.70;;;12.07;;
13439;SDS011;6792;57.698;11.946;2023-02-15T11:20:16;31.33;;;12.60;;
13439;SDS011;6792;57.698;11.946;2023-02-15T11:22:48;33.67;;;12.80;;
13439;SDS011;6792;57.698;11.946;2023-02-15T11:25:21;26.37;;;12.43;;
13439;SDS011;6792;57.698;11.946;2023-02-15T11:27:52;25.87;;;12.43;;
13439;SDS011;6792;57.698;11.946;2023-02-15T11:30:23;33.03;;;13.00;;
13439;SDS011;6792;57.698;11.946;2023-02-15T11:32:55;32.37;;;13.40;;
13439;SDS011;6792;57.698;11.946;2023-02-15T11:35:28;28.70;;;12.23;;
13439;SDS011;6792;57.698;11.946;2023-02-15T11:38:01;29.90;;;11.97;;
13439;SDS011;6792;57.698;11.946;2023-02-15T11:40:33;27.00;;;13.10;;
13439;SDS011;6792;57.698;11.946;2023-02-15T11:43:06;25.67;;;12.17;;
13439;SDS011;6792;57.698;11.946;2023-02-15T11:45:39;32.90;;;13.53;;
13439;SDS011;6792;57.698;11.946;2023-02-15T11:48:11;33.50;;;14.40;;
13439;SDS011;6792;57.698;11.946;2023-02-15T11:50:42;31.20;;;12.70;;
13439;SDS011;6792;57.698;11.946;2023-02-15T11:53:13;33.73;;;13.90;;
13439;SDS011;6792;57.698;11.946;2023-02-15T11:55:43;33.63;;;14.43;;
13439;SDS011;6792;57.698;11.946;2023-02-15T11:58:16;28.67;;;13.40;;
13439;SDS011;6792;57.698;11.946;2023-02-15T12:00:52;34.30;;;15.33;;
13439;SDS011;6792;57.698;11.946;2023-02-15T12:03:26;34.53;;;14.10;;
13439;SDS011;6792;57.698;11.946;2023-02-15T12:05:57;38.70;;;15.03;;
13439;SDS011;6792;57.698;11.946;2023-02-15T12:08:30;33.73;;;14.70;;
13439;SDS011;6792;57.698;11.946;2023-02-15T12:11:05;37.93;;;15.33;;
13439;SDS011;6792;57.698;11.946;2023-02-15T12:13:36;39.23;;;15.10;;
13439;SDS011;6792;57.698;11.946;2023-02-15T12:16:07;31.37;;;14.97;;
13439;SDS011;6792;57.698;11.946;2023-02-15T12:18:43;36.33;;;15.50;;
13439;SDS011;6792;57.698;11.946;2023-02-15T12:21:14;37.53;;;15.50;;
13439;SDS011;6792;57.698;11.946;2023-02-15T12:23:47;30.37;;;15.20;;
13439;SDS011;6792;57.698;11.946;2023-02-15T12:26:23;27.10;;;13.17;;
13439;SDS011;6792;57.698;11.946;2023-02-15T12:28:53;39.30;;;15.10;;
13439;SDS011;6792;57.698;11.946;2023-02-15T12:31:27;39.17;;;15.57;;
13439;SDS011;6792;57.698;11.946;2023-02-15T12:34:01;35.77;;;15.23;;
13439;SDS011;6792;57.698;11.946;2023-02-15T12:36:39;35.57;;;16.10;;
13439;SDS011;6792;57.698;11.946;2023-02-15T12:39:21;34.30;;;15.23;;
13439;SDS011;6792;57.698;11.946;2023-02-15T12:41:57;34.57;;;14.53;;
13439;SDS011;6792;57.698;11.946;2023-02-15T12:44:30;35.57;;;14.90;;
13439;SDS011;6792;57.698;11.946;2023-02-15T12:47:01;37.27;;;15.07;;
13439;SDS011;6792;57.698;11.946;2023-02-15T12:49:32;28.10;;;14.27;;
13439;SDS011;6792;57.698;11.946;2023-02-15T12:52:03;31.30;;;14.97;;
13439;SDS011;6792;57.698;11.946;2023-02-15T12:54:35;32.20;;;14.67;;
13439;SDS011;6792;57.698;11.946;2023-02-15T12:57:20;31.63;;;14.27;;
13439;SDS011;6792;57.698;11.946;2023-02-15T12:59:55;30.93;;;14.80;;
13439;SDS011;6792;57.698;11.946;2023-02-15T13:02:27;33.07;;;15.57;;
13439;SDS011;6792;57.698;11.946;2023-02-15T13:05:05;27.07;;;13.10;;
13439;SDS011;6792;57.698;11.946;2023-02-15T13:07:34;30.67;;;13.80;;
13439;SDS011;6792;57.698;11.946;2023-02-15T13:10:17;29.93;;;13.90;;
13439;SDS011;6792;57.698;11.946;2023-02-15T13:12:47;32.33;;;14.13;;
13439;SDS011;6792;57.698;11.946;2023-02-15T13:15:23;36.43;;;15.53;;
13439;SDS011;6792;57.698;11.946;2023-02-15T13:17:59;35.43;;;15.37;;
13439;SDS011;6792;57.698;11.946;2023-02-15T13:20:29;31.33;;;14.57;;
13439;SDS011;6792;57.698;11.946;2023-02-15T13:23:01;32.43;;;14.17;;
13439;SDS011;6792;57.698;11.946;2023-02-15T13:25:34;36.60;;;15.77;;
13439;SDS011;6792;57.698;11.946;2023-02-15T13:28:06;34.70;;;15.50;;
13439;SDS011;6792;57.698;11.946;2023-02-15T13:30:42;34.50;;;14.73;;
13439;SDS011;6792;57.698;11.946;2023-02-15T13:33:13;34.47;;;14.80;;
13439;SDS011;6792;57.698;11.946;2023-02-15T13:35:49;33.93;;;14.00;;
13439;SDS011;6792;57.698;11.946;2023-02-15T13:38:22;35.30;;;14.20;;
13439;SDS011;6792;57.698;11.946;2023-02-15T13:40:59;34.03;;;14.37;;
13439;SDS011;6792;57.698;11.946;2023-02-15T13:43:35;36.30;;;15.23;;
13439;SDS011;6792;57.698;11.946;2023-02-15T13:46:21;35.67;;;14.90;;
13439;SDS011;6792;57.698;11.946;2023-02-15T13:48:58;33.93;;;14.27;;
13439;SDS011;6792;57.698;11.946;2023-02-15T13:51:31;30.20;;;13.73;;
13439;SDS011;6792;57.698;11.946;2023-02-15T13:54:25;31.40;;;13.73;;
13439;SDS011;6792;57.698;11.946;2023-02-15T13:57:16;31.97;;;14.70;;
13439;SDS011;6792;57.698;11.946;2023-02-15T13:59:56;31.03;;;14.10;;
13439;SDS011;6792;57.698;11.946;2023-02-15T14:02:37;32.20;;;13.97;;
13439;SDS011;6792;57.698;11.946;2023-02-15T14:05:35;32.20;;;14.70;;
13439;SDS011;6792;57.698;11.946;2023-02-15T14:08:12;30.57;;;13.20;;
13439;SDS011;6792;57.698;11.946;2023-02-15T14:10:46;31.67;;;12.67;;
13439;SDS011;6792;57.698;11.946;2023-02-15T14:16:10;36.20;;;14.30;;
13439;SDS011;6792;57.698;11.946;2023-02-15T14:18:43;28.03;;;12.70;;
13439;SDS011;6792;57.698;11.946;2023-02-15T14:21:15;30.30;;;13.60;;
13439;SDS011;6792;57.698;11.946;2023-02-15T14:23:57;27.07;;;12.47;;
13439;SDS011;6792;57.698;11.946;2023-02-15T14:26:34;26.97;;;11.77;;
13439;SDS011;6792;57.698;11.946;2023-02-15T14:29:11;32.10;;;13.73;;
13439;SDS011;6792;57.698;11.946;2023-02-15T14:31:43;29.87;;;12.47;;
13439;SDS011;6792;57.698;11.946;2023-02-15T14:34:18;28.57;;;12.87;;
13439;SDS011;6792;57.698;11.946;2023-02-15T14:36:50;28.40;;;12.33;;
13439;SDS011;6792;57.698;11.946;2023-02-15T14:39:25;26.53;;;12.40;;
13439;SDS011;6792;57.698;11.946;2023-02-15T14:42:15;31.00;;;12.20;;
13439;SDS011;6792;57.698;11.946;2023-02-15T14:44:48;30.83;;;12.57;;
13439;SDS011;6792;57.698;11.946;2023-02-15T14:47:22;27.37;;;12.37;;
13439;SDS011;6792;57.698;11.946;2023-02-15T14:49:55;24.60;;;11.37;;
13439;SDS011;6792;57.698;11.946;2023-02-15T14:52:24;29.40;;;12.43;;
13439;SDS011;6792;57.698;11.946;2023-02-15T14:54:55;27.47;;;11.93;;
13439;SDS011;6792;57.698;11.946;2023-02-15T14:57:33;28.67;;;11.63;;
13439;SDS011;6792;57.698;11.946;2023-02-15T15:03:10;26.80;;;11.80;;
13439;SDS011;6792;57.698;11.946;2023-02-15T15:05:50;28.10;;;12.47;;
13439;SDS011;6792;57.698;11.946;2023-02-15T15:08:26;27.60;;;12.03;;
13439;SDS011;6792;57.698;11.946;2023-02-15T15:10:58;26.60;;;12.03;;
13439;SDS011;6792;57.698;11.946;2023-02-15T15:13:54;24.13;;;11.27;;
13439;SDS011;6792;57.698;11.946;2023-02-15T15:16:35;25.37;;;11.43;;